createdAt,value
2023-04-02T00:00:12.662Z,1053.00
2023-04-02T00:01:12.645Z,996.00
2023-04-02T00:02:12.735Z,970.00
2023-04-02T00:03:12.778Z,938.00
2023-04-02T00:04:12.927Z,957.00
2023-04-02T00:05:12.836Z,894.00
2023-04-02T00:06:12.867Z,888.00
2023-04-02T00:07:12.935Z,913.00
2023-04-02T00:08:12.972Z,855.00
2023-04-02T00:09:13.032Z,778.00
2023-04-02T00:10:13.067Z,731.00
2023-04-02T00:11:13.116Z,769.00
2023-04-02T00:12:13.158Z,781.00
2023-04-02T00:13:13.165Z,854.00
2023-04-02T00:14:13.157Z,931.00
2023-04-02T00:15:13.186Z,1032.00
2023-04-02T00:16:13.261Z,1065.00
2023-04-02T00:17:13.285Z,1066.00
2023-04-02T00:18:13.355Z,1097.00
2023-04-02T00:19:13.383Z,1065.00
2023-04-02T00:20:13.449Z,1026.00
2023-04-02T00:21:13.479Z,1021.00
2023-04-02T00:22:13.466Z,983.00
2023-04-02T00:23:13.466Z,1023.00
2023-04-02T00:24:13.530Z,955.00
2023-04-02T00:25:13.551Z,963.00
2023-04-02T00:26:13.594Z,938.00
2023-04-02T00:27:13.659Z,919.00
2023-04-02T00:28:13.706Z,981.00
2023-04-02T00:29:13.752Z,1015.00
2023-04-02T00:30:13.796Z,1038.00
2023-04-02T00:31:13.864Z,1062.00
2023-04-02T00:32:13.976Z,1046.00
2023-04-02T00:33:13.962Z,1031.00
2023-04-02T00:34:14.005Z,1013.00
2023-04-02T00:35:14.040Z,950.00
2023-04-02T00:36:14.125Z,901.00
2023-04-02T00:37:14.171Z,951.00
2023-04-02T00:38:14.194Z,1042.00
2023-04-02T00:39:14.245Z,1103.00
2023-04-02T00:40:14.278Z,1142.00
2023-04-02T00:41:14.352Z,1155.00
2023-04-02T00:42:14.365Z,1152.00
2023-04-02T00:43:14.370Z,1204.00
2023-04-02T00:44:14.397Z,1218.00
2023-04-02T00:45:14.374Z,1250.00
2023-04-02T00:46:14.426Z,1301.00
2023-04-02T00:47:14.391Z,1347.00
2023-04-02T00:48:14.403Z,1377.00
2023-04-02T00:49:14.427Z,1425.00
2023-04-02T00:50:14.419Z,1426.00
2023-04-02T00:51:14.423Z,1413.00
2023-04-02T00:52:14.447Z,1417.00
2023-04-02T00:53:14.427Z,1431.00
2023-04-02T00:54:14.427Z,1387.00
2023-04-02T00:55:14.458Z,1357.00
2023-04-02T00:56:14.454Z,1367.00
2023-04-02T00:57:14.447Z,1341.00
2023-04-02T00:58:14.465Z,1327.00
2023-04-02T00:59:14.486Z,1326.00
2023-04-02T01:00:14.476Z,1341.00
2023-04-02T01:01:14.537Z,1340.00
2023-04-02T01:02:14.629Z,1244.00
2023-04-02T01:03:14.748Z,1193.00
2023-04-02T01:04:14.698Z,1158.00
2023-04-02T01:05:14.746Z,1114.00
2023-04-02T01:06:14.798Z,1098.00
2023-04-02T01:07:14.845Z,1124.00
2023-04-02T01:08:14.916Z,1130.00
2023-04-02T01:09:14.910Z,1133.00
2023-04-02T01:10:14.955Z,1132.00
2023-04-02T01:11:14.956Z,1116.00
2023-04-02T01:12:14.977Z,1153.00
2023-04-02T01:13:15.003Z,1206.00
2023-04-02T01:14:15.010Z,1261.00
2023-04-02T01:15:15.056Z,1292.00
2023-04-02T01:16:15.147Z,1301.00
2023-04-02T01:17:15.150Z,1305.00
2023-04-02T01:18:15.222Z,1285.00
2023-04-02T01:19:15.264Z,1304.00
2023-04-02T01:20:15.333Z,1312.00
2023-04-02T01:21:15.356Z,1321.00
2023-04-02T01:22:15.406Z,1276.00
2023-04-02T01:23:15.464Z,1275.00
2023-04-02T01:24:15.508Z,1268.00
2023-04-02T01:25:15.534Z,1274.00
2023-04-02T01:26:15.583Z,1252.00
2023-04-02T01:27:15.633Z,1243.00
2023-04-02T01:28:15.654Z,1268.00
2023-04-02T01:29:15.638Z,1273.00
2023-04-02T01:30:15.683Z,1260.00
2023-04-02T01:31:15.763Z,1226.00
2023-04-02T01:32:15.780Z,1207.00
2023-04-02T01:33:15.861Z,1211.00
2023-04-02T01:34:15.895Z,1190.00
2023-04-02T01:35:15.956Z,1224.00
2023-04-02T01:36:16.051Z,1183.00
2023-04-02T01:37:16.091Z,1145.00
2023-04-02T01:38:16.114Z,1179.00
2023-04-02T01:39:16.149Z,1132.00
2023-04-02T01:40:16.136Z,1148.00
2023-04-02T01:41:16.160Z,1177.00
2023-04-02T01:42:16.222Z,1244.00
2023-04-02T01:43:16.224Z,1271.00
2023-04-02T01:44:16.252Z,1309.00
2023-04-02T01:45:16.334Z,1316.00
2023-04-02T01:46:16.341Z,1336.00
2023-04-02T01:47:16.374Z,1283.00
2023-04-02T01:48:16.414Z,1276.00
2023-04-02T01:49:16.410Z,1262.00
2023-04-02T01:50:16.436Z,1243.00
2023-04-02T01:51:16.434Z,1369.00
2023-04-02T01:52:16.453Z,1516.00
2023-04-02T01:53:16.450Z,1563.00
2023-04-02T01:54:16.471Z,1544.00
2023-04-02T01:55:16.520Z,1559.00
2023-04-02T01:56:16.553Z,1530.00
2023-04-02T01:57:16.681Z,1427.00
2023-04-02T01:58:16.656Z,1397.00
2023-04-02T01:59:16.699Z,1365.00
2023-04-02T02:00:16.822Z,1308.00
2023-04-02T02:01:16.880Z,1257.00
2023-04-02T02:02:16.845Z,1253.00
2023-04-02T02:03:16.939Z,1330.00
2023-04-02T02:04:16.867Z,1336.00
2023-04-02T02:05:16.909Z,1299.00
2023-04-02T02:06:16.898Z,1300.00
2023-04-02T02:07:16.912Z,1229.00
2023-04-02T02:08:16.934Z,1245.00
2023-04-02T02:09:16.969Z,1228.00
2023-04-02T02:10:17.022Z,1207.00
2023-04-02T02:11:17.054Z,1144.00
2023-04-02T02:12:17.088Z,1150.00
2023-04-02T02:13:17.079Z,1140.00
2023-04-02T02:14:17.103Z,1133.00
2023-04-02T02:15:17.147Z,1188.00
2023-04-02T02:16:17.187Z,1238.00
2023-04-02T02:17:17.194Z,1238.00
2023-04-02T02:18:17.262Z,1242.00
2023-04-02T02:19:17.285Z,1259.00
2023-04-02T02:20:17.315Z,1180.00
2023-04-02T02:21:17.332Z,1136.00
2023-04-02T02:22:17.355Z,1081.00
2023-04-02T02:23:17.371Z,1070.00
2023-04-02T02:24:17.387Z,1045.00
2023-04-02T02:25:17.393Z,1026.00
2023-04-02T02:26:17.405Z,1037.00
2023-04-02T02:27:17.431Z,1054.00
2023-04-02T02:28:17.462Z,1053.00
2023-04-02T02:29:17.470Z,1098.00
2023-04-02T02:30:17.507Z,1293.00
2023-04-02T02:31:17.484Z,1325.00
2023-04-02T02:32:17.495Z,1331.00
2023-04-02T02:33:17.578Z,1282.00
2023-04-02T02:34:17.604Z,1266.00
2023-04-02T02:35:17.651Z,1253.00
2023-04-02T02:36:17.739Z,1223.00
2023-04-02T02:37:17.768Z,1256.00
2023-04-02T02:38:17.785Z,1302.00
2023-04-02T02:39:17.827Z,1331.00
2023-04-02T02:40:17.841Z,1323.00
2023-04-02T02:41:17.862Z,1337.00
2023-04-02T02:42:17.899Z,1351.00
2023-04-02T02:43:17.966Z,1348.00
2023-04-02T02:44:18.017Z,1372.00
2023-04-02T02:45:18.062Z,1382.00
2023-04-02T02:46:18.175Z,1415.00
2023-04-02T02:47:18.129Z,1424.00
2023-04-02T02:48:18.174Z,1421.00
2023-04-02T02:49:18.179Z,1465.00
2023-04-02T02:50:18.179Z,1476.00
2023-04-02T02:51:18.225Z,1491.00
2023-04-02T02:52:18.297Z,1495.00
2023-04-02T02:53:18.351Z,1478.00
2023-04-02T02:54:18.363Z,1470.00
2023-04-02T02:55:18.418Z,1466.00
2023-04-02T02:56:18.439Z,1445.00
2023-04-02T02:57:18.572Z,1462.00
2023-04-02T02:58:18.528Z,1477.00
2023-04-02T02:59:18.590Z,1473.00
2023-04-02T03:00:18.568Z,1494.00
2023-04-02T03:01:18.799Z,1473.00
2023-04-02T03:02:18.666Z,1408.00
2023-04-02T03:03:18.849Z,1417.00
2023-04-02T03:04:18.874Z,1349.00
2023-04-02T03:05:18.819Z,1305.00
2023-04-02T03:06:18.872Z,1227.00
2023-04-02T03:07:18.919Z,1212.00
2023-04-02T03:08:18.980Z,1186.00
2023-04-02T03:09:19.018Z,1162.00
2023-04-02T03:10:19.090Z,1188.00
2023-04-02T03:11:19.092Z,1199.00
2023-04-02T03:12:19.134Z,1202.00
2023-04-02T03:13:19.136Z,1224.00
2023-04-02T03:14:19.161Z,1229.00
2023-04-02T03:15:19.188Z,1242.00
2023-04-02T03:16:19.272Z,1255.00
2023-04-02T03:17:19.233Z,1298.00
2023-04-02T03:18:19.226Z,1338.00
2023-04-02T03:19:19.269Z,1349.00
2023-04-02T03:20:19.313Z,1375.00
2023-04-02T03:21:19.381Z,1407.00
2023-04-02T03:22:19.428Z,1383.00
2023-04-02T03:23:20.481Z,1375.00
2023-04-02T03:24:19.540Z,1390.00
2023-04-02T03:25:19.584Z,1384.00
2023-04-02T03:26:19.646Z,1350.00
2023-04-02T03:27:19.685Z,1357.00
2023-04-02T03:28:19.750Z,1350.00
2023-04-02T03:29:19.817Z,1359.00
2023-04-02T03:30:19.858Z,1352.00
2023-04-02T03:31:19.932Z,1362.00
2023-04-02T03:32:19.940Z,1371.00
2023-04-02T03:33:19.977Z,1349.00
2023-04-02T03:34:20.039Z,1392.00
2023-04-02T03:35:20.076Z,1415.00
2023-04-02T03:36:20.184Z,1394.00
2023-04-02T03:37:20.190Z,1356.00
2023-04-02T03:38:20.225Z,1316.00
2023-04-02T03:39:20.269Z,1262.00
2023-04-02T03:40:20.328Z,1240.00
2023-04-02T03:41:20.339Z,1226.00
2023-04-02T03:42:20.353Z,1203.00
2023-04-02T03:43:20.381Z,1161.00
2023-04-02T03:44:20.388Z,1123.00
2023-04-02T03:45:20.399Z,1095.00
2023-04-02T03:46:20.477Z,1083.00
2023-04-02T03:47:20.427Z,1098.00
2023-04-02T03:48:20.470Z,1094.00
2023-04-02T03:49:20.514Z,1082.00
2023-04-02T03:50:20.507Z,1076.00
2023-04-02T03:51:20.529Z,1143.00
2023-04-02T03:52:20.543Z,1213.00
2023-04-02T03:53:20.570Z,1273.00
2023-04-02T03:54:20.634Z,1290.00
2023-04-02T03:55:20.678Z,1340.00
2023-04-02T03:56:21.211Z,1363.00
2023-04-02T03:57:20.808Z,1417.00
2023-04-02T03:58:20.807Z,1452.00
2023-04-02T03:59:20.847Z,1483.00
2023-04-02T04:00:20.860Z,1508.00
2023-04-02T04:01:20.868Z,1515.00
2023-04-02T04:02:20.951Z,1518.00
2023-04-02T04:03:20.916Z,1516.00
2023-04-02T04:04:20.986Z,1503.00
2023-04-02T04:05:20.971Z,1496.00
2023-04-02T04:06:21.361Z,1496.00
2023-04-02T04:07:21.069Z,1509.00
2023-04-02T04:08:21.097Z,1525.00
2023-04-02T04:09:21.133Z,1560.00
2023-04-02T04:10:21.198Z,1526.00
2023-04-02T04:11:21.271Z,1528.00
2023-04-02T04:12:21.299Z,1483.00
2023-04-02T04:13:21.357Z,1462.00
2023-04-02T04:14:21.407Z,1455.00
2023-04-02T04:15:21.440Z,1441.00
2023-04-02T04:16:21.518Z,1427.00
2023-04-02T04:17:21.474Z,1427.00
2023-04-02T04:18:21.525Z,1412.00
2023-04-02T04:19:21.523Z,1401.00
2023-04-02T04:20:21.562Z,1396.00
2023-04-02T04:21:21.599Z,1459.00
2023-04-02T04:22:21.661Z,1482.00
2023-04-02T04:23:21.684Z,1516.00
2023-04-02T04:24:21.786Z,1473.00
2023-04-02T04:25:21.785Z,1409.00
2023-04-02T04:26:21.830Z,1354.00
2023-04-02T04:27:21.873Z,1344.00
2023-04-02T04:28:21.916Z,1305.00
2023-04-02T04:29:21.952Z,1239.00
2023-04-02T04:30:22.008Z,1215.00
2023-04-02T04:31:23.925Z,1159.00
2023-04-02T04:32:22.012Z,1142.00
2023-04-02T04:33:22.007Z,1126.00
2023-04-02T04:34:21.997Z,1103.00
2023-04-02T04:35:21.992Z,1091.00
2023-04-02T04:36:21.997Z,1117.00
2023-04-02T04:37:21.986Z,1105.00
2023-04-02T04:38:22.000Z,1132.00
2023-04-02T04:39:21.974Z,1140.00
2023-04-02T04:40:21.987Z,1129.00
2023-04-02T04:41:21.985Z,1128.00
2023-04-02T04:42:21.957Z,1157.00
2023-04-02T04:43:21.950Z,1249.00
2023-04-02T04:44:21.956Z,1400.00
2023-04-02T04:45:21.957Z,1482.00
2023-04-02T04:46:22.018Z,1517.00
2023-04-02T04:47:21.984Z,1498.00
2023-04-02T04:48:21.923Z,1476.00
2023-04-02T04:49:21.905Z,1453.00
2023-04-02T04:50:21.909Z,1471.00
2023-04-02T04:51:21.909Z,1445.00
2023-04-02T04:52:21.884Z,1399.00
2023-04-02T04:53:21.881Z,1368.00
2023-04-02T04:54:21.874Z,1342.00
2023-04-02T04:55:21.881Z,1297.00
2023-04-02T04:56:21.878Z,1301.00
2023-04-02T04:57:21.914Z,1290.00
2023-04-02T04:58:21.845Z,1245.00
2023-04-02T04:59:21.839Z,1197.00
2023-04-02T05:00:21.837Z,1188.00
2023-04-02T05:01:21.857Z,1218.00
2023-04-02T05:02:21.813Z,1265.00
2023-04-02T05:03:21.849Z,1288.00
2023-04-02T05:04:21.840Z,1327.00
2023-04-02T05:05:21.809Z,1329.00
2023-04-02T05:06:21.799Z,1324.00
2023-04-02T05:07:21.798Z,1358.00
2023-04-02T05:08:21.771Z,1387.00
2023-04-02T05:09:21.784Z,1369.00
2023-04-02T05:10:21.793Z,1334.00
2023-04-02T05:11:21.748Z,1333.00
2023-04-02T05:12:21.747Z,1325.00
2023-04-02T05:13:21.738Z,1334.00
2023-04-02T05:14:21.720Z,1307.00
2023-04-02T05:15:21.720Z,1284.00
2023-04-02T05:16:21.756Z,1253.00
2023-04-02T05:17:21.724Z,1209.00
2023-04-02T05:18:21.716Z,1273.00
2023-04-02T05:19:21.692Z,1310.00
2023-04-02T05:20:21.695Z,1333.00
2023-04-02T05:21:21.708Z,1327.00
2023-04-02T05:22:21.741Z,1324.00
2023-04-02T05:23:21.764Z,1290.00
2023-04-02T05:24:21.800Z,1276.00
2023-04-02T05:25:21.840Z,1263.00
2023-04-02T05:26:21.869Z,1238.00
2023-04-02T05:27:21.927Z,1250.00
2023-04-02T05:28:21.961Z,1249.00
2023-04-02T05:29:21.994Z,1240.00
2023-04-02T05:30:22.037Z,1191.00
2023-04-02T05:31:22.140Z,1123.00
2023-04-02T05:32:22.111Z,1081.00
2023-04-02T05:33:22.181Z,1031.00
2023-04-02T05:34:22.205Z,1013.00
2023-04-02T05:35:22.234Z,1016.00
2023-04-02T05:36:22.321Z,1074.00
2023-04-02T05:37:22.318Z,1119.00
2023-04-02T05:38:22.354Z,1149.00
2023-04-02T05:39:22.399Z,1167.00
2023-04-02T05:40:22.430Z,1147.00
2023-04-02T05:41:22.504Z,1124.00
2023-04-02T05:42:22.529Z,1159.00
2023-04-02T05:43:22.554Z,1154.00
2023-04-02T05:44:22.565Z,1117.00
2023-04-02T05:45:22.584Z,1151.00
2023-04-02T05:46:22.658Z,1129.00
2023-04-02T05:47:22.766Z,1119.00
2023-04-02T05:48:22.710Z,1154.00
2023-04-02T05:49:22.738Z,1182.00
2023-04-02T05:50:22.735Z,1217.00
2023-04-02T05:51:22.807Z,1248.00
2023-04-02T05:52:22.773Z,1277.00
2023-04-02T05:53:22.790Z,1297.00
2023-04-02T05:54:22.827Z,1315.00
2023-04-02T05:55:22.851Z,1295.00
2023-04-02T05:56:22.873Z,1280.00
2023-04-02T05:57:29.608Z,1206.00
2023-04-02T05:59:23.897Z,1207.00
2023-04-02T06:00:22.867Z,1208.00
2023-04-02T06:01:22.876Z,1209.00
2023-04-02T06:02:22.905Z,1216.00
2023-04-02T06:03:22.923Z,1282.00
2023-04-02T06:04:22.851Z,1286.00
2023-04-02T06:05:22.838Z,1248.00
2023-04-02T06:06:22.842Z,1222.00
2023-04-02T06:07:22.841Z,1197.00
2023-04-02T06:08:22.823Z,1167.00
2023-04-02T06:09:22.819Z,1107.00
2023-04-02T06:10:24.632Z,1161.00
2023-04-02T06:11:22.869Z,1205.00
2023-04-02T06:12:22.798Z,1230.00
2023-04-02T06:13:22.794Z,1276.00
2023-04-02T06:14:22.758Z,1308.00
2023-04-02T06:15:22.769Z,1353.00
2023-04-02T06:16:22.816Z,1355.00
2023-04-02T06:17:22.760Z,1373.00
2023-04-02T06:18:22.745Z,1393.00
2023-04-02T06:19:22.726Z,1423.00
2023-04-02T06:20:22.731Z,1444.00
2023-04-02T06:21:22.773Z,1470.00
2023-04-02T06:22:22.811Z,1441.00
2023-04-02T06:23:22.811Z,1425.00
2023-04-02T06:24:22.855Z,1446.00
2023-04-02T06:25:22.898Z,1476.00
2023-04-02T06:26:22.919Z,1514.00
2023-04-02T06:27:22.967Z,1511.00
2023-04-02T06:28:22.988Z,1553.00
2023-04-02T06:29:23.049Z,1532.00
2023-04-02T06:30:23.072Z,1568.00
2023-04-02T06:31:23.264Z,1577.00
2023-04-02T06:32:23.172Z,1583.00
2023-04-02T06:33:23.167Z,1588.00
2023-04-02T06:34:23.188Z,1614.00
2023-04-02T06:35:23.228Z,1615.00
2023-04-02T06:36:23.317Z,1618.00
2023-04-02T06:37:23.302Z,1654.00
2023-04-02T06:38:23.324Z,1698.00
2023-04-02T06:39:23.326Z,1711.00
2023-04-02T06:40:23.338Z,1753.00
2023-04-02T06:41:23.355Z,1767.00
2023-04-02T06:42:23.350Z,1801.00
2023-04-02T06:43:23.367Z,1812.00
2023-04-02T06:44:23.385Z,1811.00
2023-04-02T06:45:23.440Z,1812.00
2023-04-02T06:46:23.512Z,1809.00
2023-04-02T06:47:23.513Z,1789.00
2023-04-02T06:48:23.534Z,1790.00
2023-04-02T06:49:23.543Z,1762.00
2023-04-02T06:50:23.619Z,1742.00
2023-04-02T06:51:23.595Z,1741.00
2023-04-02T06:52:23.628Z,1749.00
2023-04-02T06:53:23.676Z,1781.00
2023-04-02T06:54:23.705Z,1762.00
2023-04-02T06:55:23.788Z,1793.00
2023-04-02T06:56:23.782Z,1811.00
2023-04-02T06:57:23.841Z,1808.00
2023-04-02T06:58:23.840Z,1798.00
2023-04-02T06:59:23.848Z,1806.00
2023-04-02T07:00:23.910Z,1805.00
2023-04-02T07:01:23.937Z,1802.00
2023-04-02T07:02:23.971Z,1815.00
2023-04-02T07:03:23.989Z,1796.00
2023-04-02T07:04:24.023Z,1795.00
2023-04-02T07:05:24.022Z,1799.00
2023-04-02T07:06:24.061Z,1801.00
2023-04-02T07:07:24.077Z,1797.00
2023-04-02T07:08:24.159Z,1802.00
2023-04-02T07:09:24.171Z,1805.00
2023-04-02T07:10:24.161Z,1812.00
2023-04-02T07:11:24.177Z,1809.00
2023-04-02T07:12:24.191Z,1820.00
2023-04-02T07:13:24.224Z,1822.00
2023-04-02T07:14:24.248Z,1817.00
2023-04-02T07:15:24.276Z,1812.00
2023-04-02T07:16:24.348Z,1815.00
2023-04-02T07:17:24.358Z,1808.00
2023-04-02T07:18:24.333Z,1815.00
2023-04-02T07:19:24.333Z,1806.00
2023-04-02T07:20:24.372Z,1799.00
2023-04-02T07:21:24.371Z,1787.00
2023-04-02T07:22:24.378Z,1765.00
2023-04-02T07:23:24.392Z,1787.00
2023-04-02T07:24:24.457Z,1775.00
2023-04-02T07:25:24.496Z,1768.00
2023-04-02T07:26:24.529Z,1761.00
2023-04-02T07:27:24.556Z,1753.00
2023-04-02T07:28:24.616Z,1733.00
2023-04-02T07:29:24.654Z,1745.00
2023-04-02T07:30:24.724Z,1752.00
2023-04-02T07:31:24.763Z,1738.00
2023-04-02T07:32:24.743Z,1723.00
2023-04-02T07:33:24.821Z,1726.00
2023-04-02T07:34:24.814Z,1712.00
2023-04-02T07:35:24.841Z,1694.00
2023-04-02T07:36:24.900Z,1708.00
2023-04-02T07:37:24.897Z,1698.00
2023-04-02T07:38:24.935Z,1686.00
2023-04-02T07:39:24.955Z,1712.00
2023-04-02T07:40:24.990Z,1695.00
2023-04-02T07:41:25.028Z,1688.00
2023-04-02T07:42:25.082Z,1669.00
2023-04-02T07:43:25.116Z,1678.00
2023-04-02T07:44:25.151Z,1679.00
2023-04-02T07:45:25.184Z,1663.00
2023-04-02T07:46:25.246Z,1663.00
2023-04-02T07:47:25.282Z,1657.00
2023-04-02T07:48:25.298Z,1643.00
2023-04-02T07:49:25.311Z,1644.00
2023-04-02T07:50:25.333Z,1629.00
2023-04-02T07:51:25.352Z,1614.00
2023-04-02T07:52:25.386Z,1623.00
2023-04-02T07:53:25.441Z,1602.00
2023-04-02T07:54:25.485Z,1596.00
2023-04-02T07:55:25.519Z,1579.00
2023-04-02T07:56:25.558Z,1583.00
2023-04-02T07:57:25.644Z,1565.00
2023-04-02T07:58:25.651Z,1565.00
2023-04-02T07:59:25.717Z,1567.00
2023-04-02T08:00:25.753Z,1586.00
2023-04-02T08:01:25.895Z,1577.00
2023-04-02T08:02:25.844Z,1577.00
2023-04-02T08:03:25.918Z,1567.00
2023-04-02T08:04:25.897Z,1570.00
2023-04-02T08:05:25.920Z,1554.00
2023-04-02T08:06:25.939Z,1547.00
2023-04-02T08:07:25.978Z,1533.00
2023-04-02T08:08:25.991Z,1527.00
2023-04-02T08:09:26.019Z,1536.00
2023-04-02T08:10:26.014Z,1523.00
2023-04-02T08:11:26.062Z,1541.00
2023-04-02T08:12:26.074Z,1519.00
2023-04-02T08:13:26.129Z,1512.00
2023-04-02T08:14:26.174Z,1521.00
2023-04-02T08:15:26.197Z,1504.00
2023-04-02T08:16:26.280Z,1517.00
2023-04-02T08:17:26.294Z,1494.00
2023-04-02T08:18:26.232Z,1492.00
2023-04-02T08:19:26.280Z,1500.00
2023-04-02T08:20:26.354Z,1487.00
2023-04-02T08:21:26.345Z,1493.00
2023-04-02T08:22:26.379Z,1482.00
2023-04-02T08:23:26.392Z,1469.00
2023-04-02T08:24:26.403Z,1458.00
2023-04-02T08:25:26.424Z,1455.00
2023-04-02T08:26:26.444Z,1467.00
2023-04-02T08:27:26.446Z,1464.00
2023-04-02T08:28:26.482Z,1454.00
2023-04-02T08:29:26.537Z,1427.00
2023-04-02T08:30:26.548Z,1426.00
2023-04-02T08:31:26.691Z,1430.00
2023-04-02T08:32:26.616Z,1448.00
2023-04-02T08:33:26.576Z,1419.00
2023-04-02T08:34:26.601Z,1386.00
2023-04-02T08:35:26.602Z,1382.00
2023-04-02T08:36:26.718Z,1384.00
2023-04-02T08:37:26.690Z,1367.00
2023-04-02T08:38:26.752Z,1339.00
2023-04-02T08:39:26.808Z,1321.00
2023-04-02T08:40:26.850Z,1320.00
2023-04-02T08:41:26.868Z,1294.00
2023-04-02T08:42:26.931Z,1306.00
2023-04-02T08:43:26.921Z,1289.00
2023-04-02T08:44:26.944Z,1283.00
2023-04-02T08:45:26.950Z,1267.00
2023-04-02T08:46:27.030Z,1238.00
2023-04-02T08:47:27.059Z,1256.00
2023-04-02T08:48:27.042Z,1226.00
2023-04-02T08:49:27.114Z,1213.00
2023-04-02T08:50:27.156Z,1186.00
2023-04-02T08:51:27.206Z,1174.00
2023-04-02T08:52:27.240Z,1196.00
2023-04-02T08:53:27.335Z,1190.00
2023-04-02T08:54:27.895Z,1149.00
2023-04-02T08:55:27.338Z,1125.00
2023-04-02T08:56:27.398Z,1141.00
2023-04-02T08:57:27.478Z,1127.00
2023-04-02T08:58:27.482Z,1117.00
2023-04-02T08:59:27.530Z,1060.00
2023-04-02T09:00:27.558Z,1081.00
2023-04-02T09:01:27.626Z,1076.00
2023-04-02T09:02:27.674Z,1091.00
2023-04-02T09:03:27.736Z,1069.00
2023-04-02T09:04:27.779Z,1097.00
2023-04-02T09:05:27.780Z,1075.00
2023-04-02T09:06:27.856Z,1047.00
2023-04-02T09:07:27.880Z,1047.00
2023-04-02T09:08:27.906Z,1033.00
2023-04-02T09:09:27.924Z,1052.00
2023-04-02T09:10:27.920Z,1053.00
2023-04-02T09:11:27.951Z,1025.00
2023-04-02T09:12:27.946Z,1030.00
2023-04-02T09:13:27.973Z,1018.00
2023-04-02T09:14:27.979Z,1031.00
2023-04-02T09:15:28.003Z,999.00
2023-04-02T09:16:28.161Z,980.00
2023-04-02T09:17:28.087Z,972.00
2023-04-02T09:18:28.125Z,968.00
2023-04-02T09:19:28.112Z,957.00
2023-04-02T09:20:28.127Z,960.00
2023-04-02T09:21:28.171Z,962.00
2023-04-02T09:22:28.182Z,959.00
2023-04-02T09:23:28.232Z,929.00
2023-04-02T09:24:28.241Z,911.00
2023-04-02T09:25:28.238Z,888.00
2023-04-02T09:26:28.247Z,902.00
2023-04-02T09:27:28.313Z,873.00
2023-04-02T09:28:28.287Z,877.00
2023-04-02T09:29:28.295Z,863.00
2023-04-02T09:30:28.297Z,875.00
2023-04-02T09:31:28.347Z,883.00
2023-04-02T09:32:28.361Z,857.00
2023-04-02T09:33:28.348Z,826.00
2023-04-02T09:34:28.402Z,805.00
2023-04-02T09:35:28.395Z,826.00
2023-04-02T09:36:28.521Z,823.00
2023-04-02T09:37:28.453Z,820.00
2023-04-02T09:38:28.469Z,827.00
2023-04-02T09:39:28.510Z,815.00
2023-04-02T09:40:28.490Z,831.00
2023-04-02T09:41:28.515Z,848.00
2023-04-02T09:42:28.537Z,837.00
2023-04-02T09:43:28.560Z,839.00
2023-04-02T09:44:28.583Z,821.00
2023-04-02T09:45:28.601Z,830.00
2023-04-02T09:46:28.682Z,843.00
2023-04-02T09:47:28.673Z,821.00
2023-04-02T09:48:28.683Z,801.00
2023-04-02T09:49:28.698Z,802.00
2023-04-02T09:50:28.737Z,781.00
2023-04-02T09:51:28.763Z,791.00
2023-04-02T09:52:28.822Z,799.00
2023-04-02T09:53:28.837Z,806.00
2023-04-02T09:54:28.856Z,827.00
2023-04-02T09:55:28.887Z,836.00
2023-04-02T09:56:28.918Z,840.00
2023-04-02T09:57:29.059Z,822.00
2023-04-02T09:58:28.982Z,836.00
2023-04-02T09:59:29.021Z,829.00
2023-04-02T10:00:32.585Z,851.00
2023-04-02T10:01:29.085Z,840.00
2023-04-02T10:02:29.090Z,801.00
2023-04-02T10:03:29.023Z,789.00
2023-04-02T10:04:29.412Z,789.00
2023-04-02T10:05:39.960Z,830.00
2023-04-02T10:06:30.013Z,830.00
2023-04-02T10:07:28.986Z,816.00
2023-04-02T10:08:28.980Z,837.00
2023-04-02T10:09:28.983Z,834.00
2023-04-02T10:10:28.982Z,873.00
2023-04-02T10:11:36.454Z,890.00
2023-04-02T10:12:29.963Z,890.00
2023-04-02T10:13:28.938Z,862.00
2023-04-02T10:14:28.939Z,892.00
2023-04-02T10:15:28.942Z,895.00
2023-04-02T10:16:29.000Z,911.00
2023-04-02T10:17:29.009Z,891.00
2023-04-02T10:18:28.930Z,911.00
2023-04-02T10:19:28.920Z,901.00
2023-04-02T10:20:30.505Z,932.00
2023-04-02T10:21:28.882Z,887.00
2023-04-02T10:22:28.893Z,900.00
2023-04-02T10:23:28.885Z,912.00
2023-04-02T10:24:28.870Z,916.00
2023-04-02T10:25:28.902Z,926.00
2023-04-02T10:26:28.846Z,905.00
2023-04-02T10:27:28.870Z,919.00
2023-04-02T10:28:28.867Z,913.00
2023-04-02T10:29:28.833Z,934.00
2023-04-02T10:30:28.847Z,934.00
2023-04-02T10:31:28.844Z,947.00
2023-04-02T10:32:28.865Z,918.00
2023-04-02T10:33:28.814Z,910.00
2023-04-02T10:34:28.797Z,921.00
2023-04-02T10:35:28.834Z,948.00
2023-04-02T10:36:28.799Z,933.00
2023-04-02T10:37:28.772Z,940.00
2023-04-02T10:38:28.776Z,915.00
2023-04-02T10:39:28.767Z,903.00
2023-04-02T10:40:28.746Z,932.00
2023-04-02T10:41:28.738Z,919.00
2023-04-02T10:42:28.751Z,899.00
2023-04-02T10:43:28.748Z,928.00
2023-04-02T10:44:28.739Z,926.00
2023-04-02T10:45:28.734Z,912.00
2023-04-02T10:46:28.747Z,910.00
2023-04-02T10:47:28.790Z,903.00
2023-04-02T10:48:28.707Z,871.00
2023-04-02T10:49:28.771Z,855.00
2023-04-02T10:50:28.698Z,819.00
2023-04-02T10:51:28.707Z,838.00
2023-04-02T10:52:28.692Z,867.00
2023-04-02T10:53:28.681Z,857.00
2023-04-02T10:54:28.668Z,837.00
2023-04-02T10:55:28.654Z,860.00
2023-04-02T10:56:31.413Z,823.00
2023-04-02T10:57:29.663Z,825.00
2023-04-02T10:58:28.637Z,830.00
2023-04-02T10:59:28.627Z,841.00
2023-04-02T11:00:28.631Z,864.00
2023-04-02T11:01:28.674Z,875.00
2023-04-02T11:02:28.643Z,873.00
2023-04-02T11:03:28.754Z,865.00
2023-04-02T11:04:28.606Z,839.00
2023-04-02T11:05:28.585Z,831.00
2023-04-02T11:06:28.703Z,830.00
2023-04-02T11:07:29.441Z,859.00
2023-04-02T11:08:28.565Z,848.00
2023-04-02T11:09:28.561Z,852.00
2023-04-02T11:10:28.560Z,880.00
2023-04-02T11:11:28.558Z,866.00
2023-04-02T11:12:28.536Z,882.00
2023-04-02T11:13:28.579Z,892.00
2023-04-02T11:14:28.592Z,876.00
2023-04-02T11:15:28.627Z,903.00
2023-04-02T11:16:28.726Z,886.00
2023-04-02T11:17:28.747Z,918.00
2023-04-02T11:18:28.730Z,907.00
2023-04-02T11:19:28.763Z,879.00
2023-04-02T11:20:28.826Z,854.00
2023-04-02T11:21:28.836Z,855.00
2023-04-02T11:22:28.881Z,863.00
2023-04-02T11:23:28.907Z,879.00
2023-04-02T11:24:28.950Z,851.00
2023-04-02T11:25:28.996Z,863.00
2023-04-02T11:26:29.037Z,847.00
2023-04-02T11:27:29.056Z,833.00
2023-04-02T11:28:29.105Z,867.00
2023-04-02T11:29:29.123Z,872.00
2023-04-02T11:30:29.182Z,851.00
2023-04-02T11:31:29.195Z,841.00
2023-04-02T11:32:29.309Z,871.00
2023-04-02T11:33:36.349Z,837.00
2023-04-02T11:34:30.282Z,838.00
2023-04-02T11:35:29.278Z,839.00
2023-04-02T11:36:29.259Z,844.00
2023-04-02T11:37:29.251Z,870.00
2023-04-02T11:38:29.273Z,876.00
2023-04-02T11:39:29.262Z,861.00
2023-04-02T11:40:29.262Z,843.00
2023-04-02T11:41:29.403Z,874.00
2023-04-02T11:42:29.214Z,862.00
2023-04-02T11:43:29.210Z,844.00
2023-04-02T11:44:29.216Z,837.00
2023-04-02T11:45:29.211Z,853.00
2023-04-02T11:46:29.251Z,877.00
2023-04-02T11:47:29.296Z,835.00
2023-04-02T11:48:29.278Z,828.00
2023-04-02T11:49:29.318Z,804.00
2023-04-02T11:50:29.333Z,805.00
2023-04-02T11:51:29.360Z,838.00
2023-04-02T11:52:29.402Z,833.00
2023-04-02T11:53:29.421Z,844.00
2023-04-02T11:54:29.437Z,821.00
2023-04-02T11:55:29.446Z,810.00
2023-04-02T11:56:29.472Z,804.00
2023-04-02T11:57:29.555Z,814.00
2023-04-02T11:58:29.585Z,814.00
2023-04-02T11:59:29.591Z,807.00
2023-04-02T12:00:29.625Z,805.00
2023-04-02T12:01:29.611Z,801.00
2023-04-02T12:02:29.736Z,799.00
2023-04-02T12:03:29.640Z,827.00
2023-04-02T12:04:29.678Z,818.00
2023-04-02T12:05:29.728Z,832.00
2023-04-02T12:06:29.725Z,833.00
2023-04-02T12:07:29.791Z,807.00
2023-04-02T12:08:29.815Z,826.00
2023-04-02T12:09:29.819Z,805.00
2023-04-02T12:10:29.885Z,791.00
2023-04-02T12:11:29.910Z,796.00
2023-04-02T12:12:29.903Z,815.00